Time;durP1;ratioP1;P1;durP2;ratioP2;P2;SDS_P1;SDS_P2;PMS_P1;PMS_P2;Temp;Humidity;BMP_temperature;BMP_pressure;BME280_temperature;BME280_humidity;BME280_pressure;Samples;Min_cycle;Max_cycle;Signal;HPM_P1;HPM_P2
2023/11/01 00:01:35;;;;;;;3.93;2.90;;;8.00;99.90;;;;;;5061241;28;20175;-61
2023/11/01 00:04:01;;;;;;;3.43;2.60;;;8.00;99.90;;;;;;5066031;28;20174;-61
2023/11/01 00:06:26;;;;;;;3.10;2.60;;;8.00;99.90;;;;;;5059680;28;20432;-62
2023/11/01 00:08:52;;;;;;;3.10;2.73;;;8.00;99.90;;;;;;5061334;28;20555;-62
2023/11/01 00:11:17;;;;;;;6.50;3.03;;;8.00;99.90;;;;;;5058154;28;20181;-61
2023/11/01 00:13:43;;;;;;;3.93;2.97;;;8.10;99.90;;;;;;5065671;28;20210;-61
2023/11/01 00:16:09;;;;;;;3.90;2.70;;;8.10;99.90;;;;;;5065331;28;20202;-62
2023/11/01 00:18:34;;;;;;;4.97;2.67;;;8.10;99.90;;;;;;5065044;28;20202;-61
2023/11/01 00:21:00;;;;;;;3.27;2.87;;;8.00;99.90;;;;;;5062469;28;20189;-62
2023/11/01 00:23:25;;;;;;;4.67;2.87;;;8.00;99.90;;;;;;5061920;28;20747;-62
2023/11/01 00:25:51;;;;;;;2.87;2.67;;;8.00;99.90;;;;;;5060003;28;20178;-62
2023/11/01 00:28:17;;;;;;;5.30;3.07;;;8.00;99.90;;;;;;5062500;28;20185;-61
2023/11/01 00:30:43;;;;;;;3.80;3.37;;;7.90;99.90;;;;;;5058816;28;20685;-61
2023/11/01 00:33:08;;;;;;;6.57;3.60;;;7.90;99.90;;;;;;5054486;28;20300;-62
2023/11/01 00:35:34;;;;;;;5.07;2.90;;;7.90;99.90;;;;;;5063536;28;20205;-61
2023/11/01 00:37:59;;;;;;;7.50;3.03;;;7.90;99.90;;;;;;5059334;28;20619;-62
2023/11/01 00:40:25;;;;;;;4.87;3.03;;;7.90;99.90;;;;;;5059164;28;20198;-62
2023/11/01 00:42:51;;;;;;;7.57;2.80;;;7.80;99.90;;;;;;5062309;28;20682;-61
2023/11/01 00:45:16;;;;;;;3.80;3.13;;;7.80;99.90;;;;;;5057110;28;20673;-60
2023/11/01 00:47:42;;;;;;;3.80;2.63;;;7.70;99.90;;;;;;5062635;28;20178;-62
2023/11/01 00:50:08;;;;;;;4.37;3.00;;;7.70;99.90;;;;;;5062688;28;20664;-61
2023/11/01 00:52:33;;;;;;;3.57;2.97;;;7.60;99.90;;;;;;5064694;28;20201;-60
2023/11/01 00:54:59;;;;;;;5.10;2.90;;;7.60;99.90;;;;;;5064022;28;20171;-61
2023/11/01 00:57:25;;;;;;;3.67;2.63;;;7.50;99.90;;;;;;5064859;28;20205;-62
2023/11/01 00:59:51;;;;;;;4.80;3.23;;;7.50;99.90;;;;;;5063835;28;20183;-61
2023/11/01 01:02:17;;;;;;;4.27;2.97;;;7.50;99.90;;;;;;5062586;28;20273;-61
2023/11/01 01:04:45;;;;;;;3.23;2.80;;;7.40;99.90;;;;;;5061626;28;20702;-61
2023/11/01 01:07:11;;;;;;;5.03;3.00;;;7.40;99.90;;;;;;5053799;28;20628;-62
2023/11/01 01:09:37;;;;;;;5.00;3.00;;;7.30;99.90;;;;;;5060699;28;20554;-62
2023/11/01 01:12:03;;;;;;;3.93;2.97;;;7.30;99.90;;;;;;5062621;28;20543;-61
2023/11/01 01:14:28;;;;;;;16.50;6.70;;;7.20;99.90;;;;;;5064982;28;20641;-60
2023/11/01 01:16:54;;;;;;;27.50;11.97;;;7.20;99.90;;;;;;5066167;28;20206;-61
2023/11/01 01:19:19;;;;;;;27.83;12.63;;;7.20;99.90;;;;;;5058377;28;20174;-61
2023/11/01 01:21:45;;;;;;;27.63;10.90;;;7.10;99.90;;;;;;5067432;28;20185;-62
2023/11/01 01:24:11;;;;;;;23.07;9.30;;;7.10;99.90;;;;;;5068917;28;20709;-61
2023/11/01 01:26:36;;;;;;;13.30;7.03;;;7.10;99.90;;;;;;5063043;28;20182;-62
2023/11/01 01:29:02;;;;;;;15.87;8.33;;;7.10;99.90;;;;;;5068343;28;20182;-60
2023/11/01 01:31:27;;;;;;;18.97;7.10;;;7.00;99.90;;;;;;5066299;28;20218;-62
2023/11/01 01:33:53;;;;;;;13.40;6.20;;;7.00;99.90;;;;;;5063987;28;20281;-61
2023/11/01 01:36:18;;;;;;;5.47;3.40;;;7.00;99.90;;;;;;5062328;28;20217;-61
2023/11/01 01:38:44;;;;;;;7.07;3.60;;;7.00;99.90;;;;;;5068255;28;20665;-62
2023/11/01 01:41:10;;;;;;;3.83;2.60;;;7.00;99.90;;;;;;5069464;28;20672;-62
2023/11/01 01:43:35;;;;;;;6.03;3.60;;;7.00;99.90;;;;;;5067546;28;20202;-61
2023/11/01 01:46:10;;;;;;;5.77;3.80;;;6.90;99.90;;;;;;5066992;28;20186;-60
2023/11/01 01:48:37;;;;;;;7.23;3.27;;;6.90;99.90;;;;;;5065819;28;20186;-61
2023/11/01 01:51:05;;;;;;;6.83;3.70;;;6.90;99.90;;;;;;5066824;28;20909;-62
2023/11/01 01:53:32;;;;;;;6.87;3.07;;;6.80;99.90;;;;;;5062238;28;20464;-62
2023/11/01 01:55:59;;;;;;;6.97;4.00;;;6.80;99.90;;;;;;5068825;28;20463;-61
2023/11/01 01:58:30;;;;;;;6.03;3.47;;;6.80;99.90;;;;;;5065213;28;20547;-62
2023/11/01 02:00:56;;;;;;;7.13;3.40;;;6.70;99.90;;;;;;5063085;28;20433;-61
2023/11/01 02:03:22;;;;;;;5.20;3.20;;;6.70;99.90;;;;;;5069578;28;20425;-62
2023/11/01 02:05:48;;;;;;;4.30;3.40;;;6.70;99.90;;;;;;5067247;28;20431;-61
2023/11/01 02:08:14;;;;;;;6.83;4.70;;;6.70;99.90;;;;;;5070062;28;21163;-61
2023/11/01 02:10:41;;;;;;;8.77;4.50;;;6.60;99.90;;;;;;5064205;28;20191;-61
2023/11/01 02:13:14;;;;;;;4.43;3.73;;;6.60;99.90;;;;;;5065844;28;20467;-60
2023/11/01 02:15:42;;;;;;;7.50;3.60;;;6.60;99.90;;;;;;5058299;28;20964;-61
2023/11/01 02:18:08;;;;;;;6.00;3.60;;;6.60;99.90;;;;;;5057871;28;20440;-60
2023/11/01 02:20:36;;;;;;;5.27;3.10;;;6.60;99.90;;;;;;5061349;28;20451;-61
2023/11/01 02:23:07;;;;;;;5.90;2.90;;;6.60;99.90;;;;;;5067405;28;20929;-59
2023/11/01 02:25:32;;;;;;;4.37;2.80;;;6.60;99.90;;;;;;5061858;28;20468;-63
2023/11/01 02:27:58;;;;;;;5.80;3.50;;;6.60;99.90;;;;;;5065601;28;20510;-61
2023/11/01 02:30:24;;;;;;;6.10;3.13;;;6.70;99.90;;;;;;5067652;28;20194;-61
2023/11/01 02:32:51;;;;;;;7.50;2.90;;;6.70;99.90;;;;;;5069076;28;20451;-61
2023/11/01 02:35:19;;;;;;;6.40;3.80;;;6.70;99.90;;;;;;5066468;28;20447;-60
2023/11/01 02:37:47;;;;;;;3.87;3.27;;;6.80;99.90;;;;;;5063606;28;20439;-60
2023/11/01 02:40:14;;;;;;;6.07;3.90;;;6.80;99.90;;;;;;5066434;28;20432;-61
2023/11/01 02:42:44;;;;;;;3.23;2.93;;;6.90;99.90;;;;;;5069761;28;20421;-61
2023/11/01 02:45:10;;;;;;;4.10;3.50;;;6.90;99.90;;;;;;5062555;28;20431;-61
2023/11/01 02:47:41;;;;;;;4.60;3.93;;;6.90;99.90;;;;;;5064190;28;20410;-61
2023/11/01 02:50:11;;;;;;;7.13;4.03;;;6.90;99.90;;;;;;5061485;28;20904;-60
2023/11/01 02:52:39;;;;;;;5.87;4.10;;;6.90;99.90;;;;;;5061805;28;21059;-60
2023/11/01 02:55:12;;;;;;;6.93;4.30;;;7.00;99.90;;;;;;5063764;28;20440;-60
2023/11/01 02:57:38;;;;;;;7.20;4.00;;;6.90;99.90;;;;;;5063554;28;20460;-61
2023/11/01 03:00:07;;;;;;;5.93;4.60;;;7.00;99.90;;;;;;5060656;28;20416;-60
2023/11/01 03:02:33;;;;;;;7.27;5.07;;;6.90;99.90;;;;;;5065638;28;21008;-61
2023/11/01 03:04:59;;;;;;;11.17;4.80;;;6.90;99.90;;;;;;5060929;28;20405;-61
2023/11/01 03:07:25;;;;;;;11.70;4.77;;;6.90;99.90;;;;;;5059797;28;20460;-61
2023/11/01 03:09:50;;;;;;;6.07;4.80;;;6.80;99.90;;;;;;5066876;28;20186;-61
2023/11/01 03:12:16;;;;;;;7.07;4.17;;;6.80;99.90;;;;;;5064853;28;20194;-61
2023/11/01 03:14:41;;;;;;;28.97;5.40;;;6.80;99.90;;;;;;5061121;28;20328;-60
2023/11/01 03:17:08;;;;;;;6.37;4.53;;;6.80;99.90;;;;;;5064653;28;20202;-60
2023/11/01 03:19:34;;;;;;;5.07;4.30;;;6.70;99.90;;;;;;5065895;28;20802;-60
2023/11/01 03:21:59;;;;;;;18.80;10.90;;;6.70;99.90;;;;;;5059521;28;20452;-60
2023/11/01 03:24:25;;;;;;;9.90;6.33;;;6.70;99.90;;;;;;5060876;28;20226;-61
2023/11/01 03:26:51;;;;;;;5.53;4.20;;;6.60;99.90;;;;;;5066841;28;20259;-61
2023/11/01 03:29:16;;;;;;;5.77;4.53;;;6.60;99.90;;;;;;5060914;28;20182;-60
2023/11/01 03:31:43;;;;;;;5.70;4.40;;;6.60;99.90;;;;;;5067235;28;20635;-61
2023/11/01 03:34:09;;;;;;;7.10;4.97;;;6.60;99.90;;;;;;5060881;28;20210;-61
2023/11/01 03:36:34;;;;;;;6.70;3.90;;;6.60;99.90;;;;;;5064781;28;20463;-60
2023/11/01 03:39:00;;;;;;;4.40;4.00;;;6.60;99.90;;;;;;5064814;28;21114;-61
2023/11/01 03:41:26;;;;;;;5.87;4.10;;;6.60;99.90;;;;;;5064993;28;20174;-62
2023/11/01 03:43:51;;;;;;;9.00;4.20;;;6.60;99.90;;;;;;5065701;28;20194;-61
2023/11/01 03:46:17;;;;;;;6.70;4.57;;;6.60;99.90;;;;;;5058150;28;20768;-61
2023/11/01 03:48:43;;;;;;;7.40;5.17;;;6.60;99.90;;;;;;5064613;28;20277;-62
2023/11/01 03:51:09;;;;;;;8.63;5.50;;;6.50;99.90;;;;;;5064821;28;20618;-61
2023/11/01 03:53:34;;;;;;;8.73;5.90;;;6.50;99.90;;;;;;5064443;28;20193;-61
2023/11/01 03:56:02;;;;;;;8.73;5.63;;;6.50;99.90;;;;;;5066414;28;20681;-62
2023/11/01 03:58:28;;;;;;;9.67;5.90;;;6.50;99.90;;;;;;5057505;28;20178;-60
2023/11/01 04:00:56;;;;;;;12.40;5.87;;;6.50;99.90;;;;;;5061060;28;21158;-61
2023/11/01 04:03:23;;;;;;;14.27;7.17;;;6.50;99.90;;;;;;5062513;28;20187;-61
2023/11/01 04:05:48;;;;;;;14.10;7.73;;;6.40;99.90;;;;;;5059881;28;20508;-61
2023/11/01 04:08:14;;;;;;;9.57;5.03;;;6.40;99.90;;;;;;5066569;28;21026;-61
2023/11/01 04:10:40;;;;;;;7.60;4.90;;;6.40;99.90;;;;;;5066360;28;20188;-61
2023/11/01 04:13:06;;;;;;;9.90;5.27;;;6.40;99.90;;;;;;5062465;28;20263;-61
2023/11/01 04:15:31;;;;;;;7.23;5.53;;;6.40;99.90;;;;;;5061541;28;20175;-59
2023/11/01 04:17:57;;;;;;;7.10;5.07;;;6.40;99.90;;;;;;5064257;28;20604;-60
2023/11/01 04:20:24;;;;;;;5.80;4.50;;;6.50;99.90;;;;;;5064843;28;20606;-60
2023/11/01 04:22:50;;;;;;;7.50;5.20;;;6.50;99.90;;;;;;5058715;28;20511;-61
2023/11/01 04:25:16;;;;;;;9.13;4.97;;;6.50;99.90;;;;;;5060209;28;20413;-59
2023/11/01 04:27:42;;;;;;;4.93;4.40;;;6.50;99.90;;;;;;5064026;28;20426;-61
2023/11/01 04:30:09;;;;;;;7.70;5.10;;;6.60;99.90;;;;;;5063902;28;20237;-61
2023/11/01 04:32:36;;;;;;;6.30;4.40;;;6.60;99.90;;;;;;5059229;28;20655;-61
2023/11/01 04:35:02;;;;;;;8.87;5.40;;;6.60;99.90;;;;;;5063543;28;20433;-61
2023/11/01 04:37:28;;;;;;;6.90;4.03;;;6.50;99.90;;;;;;5066027;28;20590;-61
2023/11/01 04:39:54;;;;;;;5.60;4.80;;;6.50;99.90;;;;;;5065717;28;20472;-62
2023/11/01 04:42:19;;;;;;;7.90;5.57;;;6.50;99.90;;;;;;5062845;28;20588;-61
2023/11/01 04:44:45;;;;;;;9.90;4.67;;;6.50;99.90;;;;;;5066874;28;20178;-61
2023/11/01 04:47:12;;;;;;;9.00;5.00;;;6.40;99.90;;;;;;5070747;28;20651;-61
2023/11/01 04:49:38;;;;;;;6.93;4.67;;;6.50;99.90;;;;;;5068793;28;20433;-61
2023/11/01 04:52:07;;;;;;;7.27;5.10;;;6.50;99.90;;;;;;5069914;28;20454;-61
2023/11/01 04:54:33;;;;;;;6.87;4.57;;;6.40;99.90;;;;;;5065050;28;20437;-59
2023/11/01 04:57:02;;;;;;;6.47;4.23;;;6.40;99.90;;;;;;5068456;28;20452;-61
2023/11/01 04:59:29;;;;;;;5.73;4.43;;;6.40;99.90;;;;;;5066934;28;20428;-61
2023/11/01 05:01:55;;;;;;;7.20;4.43;;;6.30;99.90;;;;;;5061357;28;20463;-61
2023/11/01 05:04:21;;;;;;;8.70;5.60;;;6.30;99.90;;;;;;5068050;28;20428;-61
2023/11/01 05:06:47;;;;;;;5.00;4.10;;;6.20;99.90;;;;;;5066089;28;20509;-60
2023/11/01 05:09:13;;;;;;;4.63;4.20;;;6.30;99.90;;;;;;5068425;28;20747;-60
2023/11/01 05:11:39;;;;;;;7.60;4.80;;;6.30;99.90;;;;;;5067957;28;20429;-61
2023/11/01 05:14:05;;;;;;;9.83;4.30;;;6.20;99.90;;;;;;5068436;28;20435;-59
2023/11/01 05:16:30;;;;;;;6.70;4.37;;;6.30;99.90;;;;;;5062454;28;20468;-61
2023/11/01 05:18:56;;;;;;;8.87;5.73;;;6.20;99.90;;;;;;5067104;28;20205;-62
2023/11/01 05:21:21;;;;;;;6.03;4.70;;;6.30;99.90;;;;;;5066669;28;20683;-61
2023/11/01 05:23:47;;;;;;;6.43;4.10;;;6.30;99.90;;;;;;5064805;28;20206;-61
2023/11/01 05:26:14;;;;;;;4.90;4.37;;;6.20;99.90;;;;;;5063078;28;20653;-61
2023/11/01 05:28:40;;;;;;;4.73;4.20;;;6.20;99.90;;;;;;5063836;28;20190;-61
2023/11/01 05:31:06;;;;;;;4.30;3.90;;;6.20;99.90;;;;;;5062728;28;20451;-61
2023/11/01 05:33:32;;;;;;;6.00;4.37;;;6.20;99.90;;;;;;5063491;28;20205;-60
2023/11/01 05:35:57;;;;;;;5.90;3.70;;;6.10;99.90;;;;;;5066255;28;20852;-61
2023/11/01 05:38:25;;;;;;;4.60;4.10;;;6.10;99.90;;;;;;5064897;28;20174;-61
2023/11/01 05:40:51;;;;;;;6.77;4.67;;;6.10;99.90;;;;;;5063262;28;20202;-60
2023/11/01 05:43:17;;;;;;;7.83;4.40;;;6.10;99.90;;;;;;5061731;28;20510;-60
2023/11/01 05:45:42;;;;;;;7.57;5.07;;;6.00;99.90;;;;;;5063630;28;20191;-61
2023/11/01 05:48:08;;;;;;;9.10;6.53;;;6.00;99.90;;;;;;5062832;28;20708;-61
2023/11/01 05:50:34;;;;;;;5.93;4.07;;;5.90;99.90;;;;;;5061387;28;20731;-60
2023/11/01 05:53:02;;;;;;;10.57;5.20;;;5.90;99.90;;;;;;5063591;28;20286;-62
2023/11/01 05:55:28;;;;;;;4.33;3.90;;;5.80;99.90;;;;;;5064557;28;20186;-62
2023/11/01 05:57:53;;;;;;;4.73;4.23;;;5.80;99.90;;;;;;5061419;28;20440;-60
2023/11/01 06:00:19;;;;;;;5.73;4.50;;;5.70;99.90;;;;;;5060782;28;20182;-61
2023/11/01 06:02:45;;;;;;;40.93;5.73;;;5.70;99.90;;;;;;5064196;28;20203;-61
2023/11/01 06:05:11;;;;;;;126.73;9.53;;;5.60;99.90;;;;;;5063859;28;20182;-61
2023/11/01 06:07:36;;;;;;;151.80;10.00;;;5.60;99.90;;;;;;5066291;28;20432;-62
2023/11/01 06:10:02;;;;;;;184.90;11.30;;;5.50;99.90;;;;;;5061307;28;20539;-61
2023/11/01 06:12:28;;;;;;;187.10;10.80;;;5.40;99.90;;;;;;5065214;28;20688;-62
2023/11/01 06:14:53;;;;;;;24.27;5.10;;;5.30;99.90;;;;;;5061909;28;20190;-62
2023/11/01 06:17:20;;;;;;;23.47;5.80;;;5.30;99.90;;;;;;5061528;28;20771;-61
2023/11/01 06:19:48;;;;;;;99.53;8.80;;;5.20;99.90;;;;;;5062557;28;20649;-62
2023/11/01 06:22:14;;;;;;;55.70;6.73;;;5.20;99.90;;;;;;5067804;28;20443;-62
2023/11/01 06:24:40;;;;;;;31.43;5.97;;;5.20;99.90;;;;;;5065759;28;20443;-62
2023/11/01 06:27:06;;;;;;;43.00;5.17;;;5.20;99.90;;;;;;5063223;28;20525;-61
2023/11/01 06:29:31;;;;;;;20.90;4.97;;;5.20;99.90;;;;;;5066913;28;20170;-60
2023/11/01 06:31:57;;;;;;;77.40;7.33;;;5.20;99.90;;;;;;5062244;28;20800;-61
2023/11/01 06:34:22;;;;;;;41.73;5.90;;;5.20;99.90;;;;;;5051529;28;20189;-61
2023/11/01 06:36:48;;;;;;;52.70;5.57;;;5.20;99.90;;;;;;5058085;28;20751;-59
2023/11/01 06:39:13;;;;;;;69.73;5.90;;;5.20;99.90;;;;;;5065059;28;20182;-62
2023/11/01 06:41:39;;;;;;;55.83;7.03;;;5.20;99.90;;;;;;5059968;28;20182;-62
2023/11/01 06:44:06;;;;;;;25.43;6.20;;;5.20;99.90;;;;;;5061047;28;20232;-62
2023/11/01 06:46:32;;;;;;;33.57;7.10;;;5.30;99.90;;;;;;5064982;28;20202;-60
2023/11/01 06:48:57;;;;;;;49.10;7.67;;;5.30;99.90;;;;;;5063774;28;20459;-60
2023/11/01 06:51:23;;;;;;;13.50;5.43;;;5.40;99.90;;;;;;5062846;28;20971;-61
2023/11/01 06:53:48;;;;;;;162.97;10.20;;;5.40;99.90;;;;;;5063824;28;20198;-61
2023/11/01 06:56:14;;;;;;;59.97;9.17;;;5.50;99.90;;;;;;5061975;28;20198;-61
2023/11/01 06:58:40;;;;;;;52.27;7.73;;;5.50;99.90;;;;;;5060005;28;20613;-60
2023/11/01 07:01:06;;;;;;;110.63;8.83;;;5.60;99.90;;;;;;5063168;28;20189;-61
2023/11/01 07:03:32;;;;;;;47.17;7.07;;;5.60;99.90;;;;;;5060893;28;20187;-60
2023/11/01 07:05:57;;;;;;;99.20;9.50;;;5.70;99.90;;;;;;5065603;28;21044;-61
2023/11/01 07:08:23;;;;;;;88.20;7.87;;;5.80;99.90;;;;;;5061949;28;20197;-61
2023/11/01 07:10:49;;;;;;;68.77;7.60;;;5.80;99.90;;;;;;5058771;28;20213;-60
2023/11/01 07:13:14;;;;;;;62.70;7.50;;;5.90;99.90;;;;;;5057767;28;20195;-60
2023/11/01 07:15:40;;;;;;;64.43;7.50;;;5.90;99.90;;;;;;5057741;28;20645;-60
2023/11/01 07:18:07;;;;;;;34.73;6.90;;;6.00;99.90;;;;;;5061240;28;20240;-60
2023/11/01 07:20:33;;;;;;;18.10;5.90;;;6.10;99.90;;;;;;5060824;28;20171;-58
2023/11/01 07:22:58;;;;;;;19.63;6.20;;;6.10;99.90;;;;;;5060194;28;20429;-60
2023/11/01 07:25:24;;;;;;;44.47;6.37;;;6.20;99.90;;;;;;5061317;28;20191;-58
2023/11/01 07:27:49;;;;;;;30.47;7.00;;;6.20;99.90;;;;;;5060653;28;20178;-60
2023/11/01 07:30:15;;;;;;;22.70;6.63;;;6.30;99.90;;;;;;5059312;28;20181;-62
2023/11/01 07:32:41;;;;;;;39.90;7.80;;;6.30;99.90;;;;;;5060943;28;20195;-60
2023/11/01 07:35:07;;;;;;;14.90;5.90;;;6.40;99.90;;;;;;5061516;28;20391;-60
2023/11/01 07:37:32;;;;;;;7.80;5.20;;;6.40;99.90;;;;;;5059281;28;20630;-59
2023/11/01 07:39:59;;;;;;;12.77;5.60;;;6.50;99.90;;;;;;5058578;28;20449;-57
2023/11/01 07:42:24;;;;;;;11.47;5.20;;;6.50;99.90;;;;;;5061209;28;20203;-61
2023/11/01 07:44:50;;;;;;;15.03;6.30;;;6.60;99.90;;;;;;5059007;28;20432;-59
2023/11/01 07:47:16;;;;;;;26.83;5.97;;;6.60;99.90;;;;;;5057633;28;20680;-60
2023/11/01 07:49:42;;;;;;;49.40;7.00;;;6.70;99.90;;;;;;5064463;28;20178;-61
2023/11/01 07:52:07;;;;;;;51.00;7.93;;;6.70;99.90;;;;;;5062503;28;20866;-60
2023/11/01 07:54:33;;;;;;;20.27;6.10;;;6.70;99.90;;;;;;5055230;28;20178;-59
2023/11/01 07:56:59;;;;;;;39.57;9.03;;;6.70;99.90;;;;;;5063711;28;20579;-60
2023/11/01 07:59:25;;;;;;;9.80;6.73;;;6.70;99.90;;;;;;5060088;28;20167;-60
2023/11/01 08:01:51;;;;;;;60.73;9.37;;;6.70;99.90;;;;;;5057544;28;20441;-60
2023/11/01 08:04:17;;;;;;;40.57;11.80;;;6.70;99.90;;;;;;5053810;28;20178;-58
2023/11/01 08:06:43;;;;;;;17.53;8.07;;;6.70;99.90;;;;;;5051739;28;20174;-60
2023/11/01 08:09:11;;;;;;;97.60;11.80;;;6.70;99.90;;;;;;5054299;28;20459;-60
2023/11/01 08:11:37;;;;;;;21.60;7.43;;;6.70;99.90;;;;;;5052246;28;20424;-61
2023/11/01 08:14:04;;;;;;;9.53;5.53;;;6.70;99.90;;;;;;5058318;28;20458;-59
2023/11/01 08:16:29;;;;;;;27.77;6.80;;;6.70;99.90;;;;;;5057961;28;20551;-61
2023/11/01 08:18:55;;;;;;;10.50;6.07;;;6.80;99.90;;;;;;5056860;28;20432;-57
2023/11/01 08:21:20;;;;;;;40.93;6.83;;;6.80;99.90;;;;;;5055701;28;20194;-56
2023/11/01 08:23:46;;;;;;;14.73;6.17;;;6.90;99.90;;;;;;5058398;28;20206;-57
2023/11/01 08:26:21;;;;;;;20.20;6.40;;;6.90;99.90;;;;;;5055104;28;20194;-57
2023/11/01 08:28:46;;;;;;;26.13;7.07;;;7.00;99.90;;;;;;5056283;28;20697;-58
2023/11/01 08:31:12;;;;;;;16.33;6.00;;;6.90;99.90;;;;;;5058856;28;20441;-60
2023/11/01 08:33:39;;;;;;;10.30;5.53;;;6.90;99.90;;;;;;5053337;28;20586;-60
2023/11/01 08:36:05;;;;;;;12.80;8.10;;;7.00;99.90;;;;;;5056235;28;20190;-59
2023/11/01 08:38:31;;;;;;;9.60;6.40;;;7.00;99.90;;;;;;5052418;28;20436;-59
2023/11/01 08:40:57;;;;;;;11.00;5.97;;;7.10;99.90;;;;;;5051550;28;20470;-58
2023/11/01 08:43:22;;;;;;;10.73;6.73;;;7.20;99.90;;;;;;5057569;28;20444;-55
2023/11/01 08:45:48;;;;;;;8.00;5.43;;;7.30;99.90;;;;;;5060578;28;20179;-57
2023/11/01 08:48:16;;;;;;;9.47;6.40;;;7.40;99.90;;;;;;5058674;28;20523;-59
2023/11/01 08:50:42;;;;;;;10.33;6.33;;;7.50;99.90;;;;;;5056940;28;20192;-59
2023/11/01 08:53:07;;;;;;;14.70;9.60;;;7.60;99.90;;;;;;5063187;28;20548;-60
2023/11/01 08:55:35;;;;;;;13.27;8.17;;;7.70;99.90;;;;;;5059686;28;21970;-58
2023/11/01 08:58:00;;;;;;;11.77;7.60;;;7.80;99.90;;;;;;5054202;28;20248;-59
2023/11/01 09:00:27;;;;;;;13.67;7.37;;;7.90;99.90;;;;;;5055289;28;20989;-60
2023/11/01 09:02:52;;;;;;;9.57;5.33;;;8.00;99.90;;;;;;5054536;28;20223;-59
2023/11/01 09:05:18;;;;;;;8.20;6.03;;;8.10;99.90;;;;;;5057430;28;21466;-58
2023/11/01 09:07:44;;;;;;;7.77;6.00;;;8.30;99.90;;;;;;5059557;28;20452;-60
2023/11/01 09:10:10;;;;;;;11.47;7.90;;;8.40;99.90;;;;;;5055841;28;20439;-60
2023/11/01 09:12:36;;;;;;;12.50;7.83;;;8.50;99.90;;;;;;5054874;28;20256;-59
2023/11/01 09:15:03;;;;;;;10.47;7.00;;;8.60;99.90;;;;;;5059766;28;20217;-57
2023/11/01 09:17:29;;;;;;;12.83;7.70;;;8.60;99.90;;;;;;5057582;28;20455;-61
2023/11/01 09:19:55;;;;;;;13.37;7.33;;;8.70;99.90;;;;;;5055623;28;20437;-61
2023/11/01 09:22:20;;;;;;;11.87;7.30;;;8.80;99.90;;;;;;5056575;28;20218;-61
2023/11/01 09:24:46;;;;;;;8.00;6.53;;;8.90;99.90;;;;;;5059845;28;20180;-63
2023/11/01 09:27:11;;;;;;;9.63;5.97;;;8.90;99.90;;;;;;5056265;28;20269;-60
2023/11/01 09:29:37;;;;;;;9.73;6.70;;;9.00;99.90;;;;;;5057877;28;20578;-62
2023/11/01 09:32:03;;;;;;;11.10;7.10;;;9.00;99.90;;;;;;5060912;28;20341;-58
2023/11/01 09:34:28;;;;;;;9.30;6.33;;;9.10;99.90;;;;;;5062227;28;20602;-60
2023/11/01 09:36:54;;;;;;;10.83;6.77;;;9.20;99.90;;;;;;5062965;28;20206;-61
2023/11/01 09:39:20;;;;;;;12.30;7.53;;;9.30;99.90;;;;;;5062873;28;20200;-61
2023/11/01 09:41:50;;;;;;;11.57;6.80;;;9.40;99.90;;;;;;5061693;28;20232;-60
2023/11/01 09:44:17;;;;;;;11.00;7.47;;;9.60;99.90;;;;;;5059681;28;20518;-58
2023/11/01 09:46:44;;;;;;;8.20;6.03;;;9.70;99.90;;;;;;5061957;28;20489;-61
2023/11/01 09:49:10;;;;;;;7.73;5.63;;;9.90;99.90;;;;;;5056135;28;20468;-61
2023/11/01 09:51:36;;;;;;;11.37;5.30;;;10.00;99.90;;;;;;5059510;28;20441;-57
2023/11/01 09:54:04;;;;;;;5.97;4.60;;;10.00;99.90;;;;;;5061605;28;20626;-59
2023/11/01 09:56:33;;;;;;;6.00;4.30;;;10.10;99.90;;;;;;5063361;28;20555;-62
2023/11/01 09:59:00;;;;;;;4.03;3.70;;;10.20;99.90;;;;;;5059342;28;20433;-58
2023/11/01 10:01:30;;;;;;;8.90;4.17;;;10.30;99.90;;;;;;5055905;28;20891;-60
2023/11/01 10:03:56;;;;;;;9.00;3.70;;;10.40;99.90;;;;;;5059414;28;20488;-59
2023/11/01 10:06:26;;;;;;;4.70;3.47;;;10.40;99.90;;;;;;5059087;28;20491;-58
2023/11/01 10:08:52;;;;;;;5.00;3.33;;;10.30;99.90;;;;;;5061213;28;20460;-58
2023/11/01 10:11:19;;;;;;;4.27;2.93;;;10.30;99.90;;;;;;5056422;28;20431;-58
2023/11/01 10:13:44;;;;;;;4.30;3.13;;;10.30;99.90;;;;;;5064353;28;20543;-60
2023/11/01 10:16:11;;;;;;;2.63;2.40;;;10.30;99.90;;;;;;5062079;28;20543;-59
2023/11/01 10:18:37;;;;;;;3.40;2.57;;;10.20;99.90;;;;;;5067318;28;20594;-60
2023/11/01 10:21:03;;;;;;;6.00;2.30;;;10.20;99.90;;;;;;5058342;28;20428;-58
2023/11/01 10:23:29;;;;;;;3.53;2.90;;;10.20;99.90;;;;;;5061961;28;20195;-56
2023/11/01 10:25:54;;;;;;;5.23;3.60;;;10.20;99.90;;;;;;5060240;28;21170;-57
2023/11/01 10:28:20;;;;;;;4.80;3.17;;;10.20;99.90;;;;;;5056563;28;20269;-56
2023/11/01 10:30:47;;;;;;;4.40;3.87;;;10.30;99.90;;;;;;5061409;28;20185;-59
2023/11/01 10:33:14;;;;;;;4.40;3.50;;;10.30;99.90;;;;;;5066446;28;20214;-56
2023/11/01 10:35:40;;;;;;;4.67;4.13;;;10.30;99.90;;;;;;5053910;28;20445;-59
2023/11/01 10:38:07;;;;;;;3.20;2.90;;;10.30;99.90;;;;;;5064406;28;20428;-58
2023/11/01 10:40:32;;;;;;;7.37;2.83;;;10.30;99.90;;;;;;5057242;28;20861;-57
2023/11/01 10:43:05;;;;;;;3.43;2.50;;;10.30;99.90;;;;;;5059654;28;20453;-57
2023/11/01 10:45:31;;;;;;;9.60;2.60;;;10.30;99.90;;;;;;5067418;28;21188;-60
2023/11/01 10:47:58;;;;;;;2.53;2.33;;;10.30;99.90;;;;;;5067486;28;20858;-62
2023/11/01 10:50:24;;;;;;;6.63;3.00;;;10.30;99.90;;;;;;5060464;28;20433;-62
2023/11/01 10:52:50;;;;;;;3.83;2.70;;;10.20;99.90;;;;;;5056636;28;20997;-62
2023/11/01 10:55:20;;;;;;;4.17;2.73;;;10.20;99.90;;;;;;5055073;28;20428;-61
2023/11/01 10:57:51;;;;;;;4.97;2.67;;;10.10;99.90;;;;;;5058264;28;20465;-60
2023/11/01 11:00:44;;;;;;;5.60;2.87;;;10.10;99.90;;;;;;5063492;28;20436;-59
2023/11/01 11:03:34;;;;;;;4.03;2.90;;;10.10;99.90;;;;;;5063128;28;20448;-60
2023/11/01 11:06:09;;;;;;;4.57;3.30;;;10.10;99.90;;;;;;5061077;28;20857;-61
2023/11/01 11:08:35;;;;;;;4.90;3.00;;;10.10;99.90;;;;;;5059413;28;20561;-62
2023/11/01 11:11:18;;;;;;;4.10;2.70;;;10.10;99.90;;;;;;5054741;28;20830;-61
2023/11/01 11:13:48;;;;;;;4.67;3.40;;;10.00;99.90;;;;;;5060242;28;20285;-62
2023/11/01 11:16:18;;;;;;;4.57;3.30;;;9.90;99.90;;;;;;5058026;28;20543;-61
2023/11/01 11:18:46;;;;;;;4.13;3.60;;;9.90;99.90;;;;;;5060603;28;20999;-61
2023/11/01 11:21:49;;;;;;;4.90;3.30;;;9.80;99.90;;;;;;5062885;28;20428;-60
2023/11/01 11:24:55;;;;;;;7.43;3.50;;;9.80;99.90;;;;;;5066140;28;20404;-61
2023/11/01 11:27:47;;;;;;;5.00;3.50;;;9.80;99.90;;;;;;5027075;28;20439;-60
2023/11/01 11:30:12;;;;;;;4.43;3.40;;;9.80;99.90;;;;;;5061638;28;21719;-60
2023/11/01 11:32:38;;;;;;;3.80;3.40;;;9.80;99.90;;;;;;5062957;28;20488;-60
2023/11/01 11:35:18;;;;;;;5.13;2.90;;;9.80;99.90;;;;;;5054380;28;20605;-59
2023/11/01 11:37:44;;;;;;;6.03;3.63;;;9.80;99.90;;;;;;5065010;28;20208;-61
2023/11/01 11:40:10;;;;;;;3.90;3.10;;;9.80;99.90;;;;;;5060256;28;20444;-62
2023/11/01 11:42:41;;;;;;;8.03;3.60;;;9.80;99.90;;;;;;5059239;28;20202;-61
2023/11/01 11:45:08;;;;;;;5.10;3.33;;;9.90;99.90;;;;;;5053533;28;20439;-61
2023/11/01 11:47:34;;;;;;;3.77;3.00;;;9.80;99.90;;;;;;5055349;28;20491;-60
2023/11/01 11:50:09;;;;;;;4.13;3.73;;;9.80;99.90;;;;;;5061368;28;20461;-62
2023/11/01 11:52:38;;;;;;;4.83;3.80;;;9.90;99.90;;;;;;5062009;28;20518;-61
2023/11/01 11:55:04;;;;;;;5.20;3.83;;;9.90;99.90;;;;;;5059470;28;20428;-55
2023/11/01 11:57:30;;;;;;;7.33;3.50;;;9.90;99.90;;;;;;5054823;28;20464;-54
2023/11/01 12:00:10;;;;;;;6.87;4.03;;;9.90;99.90;;;;;;5061471;28;20174;-60
2023/11/01 12:02:35;;;;;;;5.17;3.73;;;10.00;99.90;;;;;;5059834;28;20557;-59
2023/11/01 12:05:02;;;;;;;5.03;3.63;;;10.10;99.90;;;;;;5058571;28;20963;-58
2023/11/01 12:07:28;;;;;;;5.50;3.70;;;10.10;99.90;;;;;;5059977;28;20611;-61
2023/11/01 12:09:56;;;;;;;3.73;3.43;;;10.30;99.90;;;;;;5057404;28;20468;-62
2023/11/01 12:12:22;;;;;;;4.93;3.57;;;10.60;99.90;;;;;;5052518;28;20459;-58
2023/11/01 12:15:00;;;;;;;4.57;3.53;;;11.10;99.90;;;;;;5056528;28;20433;-56
2023/11/01 12:17:29;;;;;;;3.50;3.00;;;11.60;99.90;;;;;;5058735;28;20569;-56
2023/11/01 12:19:55;;;;;;;4.53;2.90;;;12.00;99.90;;;;;;5060802;28;20440;-56
2023/11/01 12:22:21;;;;;;;3.20;2.63;;;12.30;99.90;;;;;;5059833;28;20463;-57
2023/11/01 12:24:48;;;;;;;2.67;2.40;;;12.60;99.90;;;;;;5057402;28;20432;-58
2023/11/01 12:27:17;;;;;;;3.83;2.63;;;12.80;99.90;;;;;;5053160;28;20178;-60
2023/11/01 12:29:50;;;;;;;4.13;2.20;;;12.80;99.90;;;;;;5056856;28;20424;-59
2023/11/01 12:32:34;;;;;;;3.03;1.97;;;12.70;99.90;;;;;;5055870;28;20452;-60
2023/11/01 12:35:04;;;;;;;1.30;1.20;;;12.50;99.90;;;;;;5062550;28;20432;-59
2023/11/01 12:37:31;;;;;;;2.73;1.93;;;12.50;99.90;;;;;;5055316;28;20977;-59
2023/11/01 12:40:07;;;;;;;2.47;2.27;;;12.50;99.90;;;;;;5060750;28;20437;-57
2023/11/01 12:42:34;;;;;;;3.03;2.27;;;12.60;99.90;;;;;;5057870;28;20449;-57
2023/11/01 12:45:00;;;;;;;1.83;1.70;;;12.60;99.90;;;;;;5055865;28;20522;-61
2023/11/01 12:47:31;;;;;;;2.37;1.77;;;12.50;99.90;;;;;;5060330;28;20429;-61
2023/11/01 12:49:58;;;;;;;2.10;1.77;;;12.60;99.90;;;;;;5057720;28;20428;-60